Jackson, Missouri
Current Conditions -  °F | °C
As of 6:19 AM on Sunday 23 Nov 2014 (Local Time) from KCGI Reporting Station
Overcast Overcast  
Wind Chill: 55°   Ceiling: 1800
Heat Index: 55°   Visibility: 10mi
Dew Point: 50°   Wind: 13mph
Humidity: 83%   Direction: 140°SE
Pressure: 29.78"   Gusts: NA
Location:  37.38°N, 89.67°W
Report Text: KCGI 231219Z AUTO 14011KT 10SM BKN018 BKN031 OVC042 13/10 A2978 RMK AO2 T01280100 TSNO
Loading
Personal Weather Stations






























Interactive Weather Map New forecast layout! Learn more

10-Day Weather Forecast

Advertisements
Track Severe Weather on mobile